Time;durP1;ratioP1;P1;durP2;ratioP2;P2;SDS_P1;SDS_P2;PMS_P1;PMS_P2;Temp;Humidity;BMP_temperature;BMP_pressure;BME280_temperature;BME280_humidity;BME280_pressure;Samples;Min_cycle;Max_cycle;Signal;HPM_P1;HPM_P2
2023/03/15 00:00:19;;;;;;;13.57;6.57;;;1.10;99.90;;;;;;6274245;22;20167;-85
2023/03/15 00:02:44;;;;;;;25.23;6.37;;;1.10;99.90;;;;;;6273695;22;20183;-85
2023/03/15 00:05:11;;;;;;;13.73;6.10;;;1.20;99.90;;;;;;6273882;22;20243;-86
2023/03/15 00:07:37;;;;;;;17.45;6.70;;;1.10;99.90;;;;;;6276804;22;20152;-85
2023/03/15 00:10:04;;;;;;;18.53;6.33;;;1.10;99.90;;;;;;6299748;22;20214;-83
2023/03/15 00:12:30;;;;;;;13.70;7.25;;;1.20;99.90;;;;;;6275008;22;20728;-84
2023/03/15 00:14:56;;;;;;;19.70;7.10;;;1.20;99.90;;;;;;6275594;22;20171;-86
2023/03/15 00:17:22;;;;;;;18.43;6.07;;;1.30;99.90;;;;;;6273823;22;20148;-83
2023/03/15 00:19:48;;;;;;;16.20;6.33;;;1.30;99.90;;;;;;6276267;22;20370;-85
2023/03/15 00:22:13;;;;;;;12.32;5.97;;;1.30;99.90;;;;;;6274777;22;20147;-83
2023/03/15 00:24:39;;;;;;;22.70;7.80;;;1.20;99.90;;;;;;6273527;22;20156;-82
2023/03/15 00:27:04;;;;;;;19.27;6.70;;;1.20;99.90;;;;;;6277197;22;20163;-84
2023/03/15 00:29:31;;;;;;;32.03;6.13;;;1.20;99.90;;;;;;6275268;22;20184;-84
2023/03/15 00:31:57;;;;;;;16.98;6.22;;;1.20;99.90;;;;;;6277519;22;20172;-84
2023/03/15 00:34:25;;;;;;;16.30;6.20;;;1.20;99.90;;;;;;6300036;22;20154;-84
2023/03/15 00:36:52;;;;;;;15.20;5.72;;;1.10;99.90;;;;;;6274250;22;20158;-86
2023/03/15 00:39:18;;;;;;;16.85;5.30;;;1.10;99.90;;;;;;6274731;22;20147;-83
2023/03/15 00:41:44;;;;;;;4.13;3.13;;;1.10;99.90;;;;;;6275920;22;20209;-85
2023/03/15 00:44:10;;;;;;;9.02;5.07;;;1.10;99.90;;;;;;6275804;22;20226;-85
2023/03/15 00:46:36;;;;;;;8.23;3.80;;;1.10;99.90;;;;;;6301007;22;20561;-84
2023/03/15 00:49:02;;;;;;;4.17;2.67;;;1.10;99.90;;;;;;6273336;22;20150;-85
2023/03/15 00:51:29;;;;;;;8.27;4.67;;;1.10;99.90;;;;;;6274479;22;20187;-83
2023/03/15 00:53:55;;;;;;;8.20;4.00;;;1.10;99.90;;;;;;6276089;22;20175;-84
2023/03/15 00:56:25;;;;;;;8.43;4.35;;;0.90;99.90;;;;;;6277301;22;20128;-83
2023/03/15 00:58:54;;;;;;;18.95;4.28;;;1.00;99.90;;;;;;6276455;22;20144;-85
2023/03/15 01:01:23;;;;;;;15.63;5.00;;;1.10;99.90;;;;;;6273951;22;20246;-85
2023/03/15 01:03:48;;;;;;;6.47;2.97;;;1.00;99.90;;;;;;6275904;22;20155;-82
2023/03/15 01:06:17;;;;;;;15.77;3.93;;;1.00;99.90;;;;;;6276408;22;20673;-85
2023/03/15 01:08:44;;;;;;;11.38;2.92;;;1.00;99.90;;;;;;6273000;22;20140;-83
2023/03/15 01:11:13;;;;;;;7.80;2.75;;;1.00;99.90;;;;;;6271007;22;20184;-84
2023/03/15 01:13:39;;;;;;;7.85;2.67;;;1.00;99.90;;;;;;6274500;22;20231;-86
2023/03/15 01:16:06;;;;;;;1.90;1.48;;;1.00;99.90;;;;;;6299438;22;20201;-82
2023/03/15 01:18:32;;;;;;;11.27;2.05;;;1.10;99.90;;;;;;6272711;22;20152;-85
2023/03/15 01:20:58;;;;;;;4.15;1.55;;;1.10;99.90;;;;;;6277622;22;20164;-84
2023/03/15 01:23:23;;;;;;;3.23;1.60;;;1.10;99.90;;;;;;6270133;22;20183;-81
2023/03/15 01:25:49;;;;;;;4.10;2.00;;;1.10;99.90;;;;;;6270848;22;20400;-84
2023/03/15 01:28:15;;;;;;;8.93;2.70;;;1.00;99.90;;;;;;6269924;22;20201;-86
2023/03/15 01:30:51;;;;;;;3.58;1.63;;;1.00;99.90;;;;;;6272484;22;20272;-82
2023/03/15 01:33:17;;;;;;;2.08;1.05;;;1.00;99.90;;;;;;6298179;22;20684;-82
2023/03/15 01:35:43;;;;;;;3.27;1.57;;;1.00;99.90;;;;;;6270467;22;20151;-85
2023/03/15 01:38:08;;;;;;;3.25;1.90;;;1.00;99.90;;;;;;6271907;22;20148;-83
2023/03/15 01:40:34;;;;;;;3.93;2.00;;;1.00;99.90;;;;;;6275216;22;20211;-82
2023/03/15 01:43:02;;;;;;;3.70;1.60;;;1.00;99.90;;;;;;6277104;22;20147;-82
2023/03/15 01:46:02;;;;;;;3.88;1.20;;;1.00;99.90;;;;;;6274355;22;20220;-83
2023/03/15 01:48:37;;;;;;;8.02;2.30;;;1.00;99.90;;;;;;6274892;22;20234;-82
2023/03/15 01:51:11;;;;;;;4.43;1.45;;;1.00;99.90;;;;;;6275775;22;20182;-84
2023/03/15 01:53:38;;;;;;;5.95;1.67;;;1.00;99.90;;;;;;6273306;22;20148;-83
2023/03/15 01:56:05;;;;;;;6.50;1.92;;;1.00;99.90;;;;;;6275572;22;20148;-84
2023/03/15 01:58:32;;;;;;;8.55;1.73;;;1.00;99.90;;;;;;6277370;22;20474;-82
2023/03/15 02:00:57;;;;;;;5.53;3.00;;;1.00;99.90;;;;;;6273824;22;20179;-84
2023/03/15 02:03:34;;;;;;;4.50;1.80;;;1.10;99.90;;;;;;6272111;22;20639;-83
2023/03/15 02:06:08;;;;;;;5.25;1.45;;;0.90;99.90;;;;;;6271322;22;20438;-84
2023/03/15 02:08:40;;;;;;;6.82;1.63;;;1.00;99.90;;;;;;6299427;22;20246;-83
2023/03/15 02:11:06;;;;;;;7.82;1.42;;;1.10;99.90;;;;;;6272635;22;20719;-83
2023/03/15 02:13:33;;;;;;;6.57;1.57;;;1.10;99.90;;;;;;6272131;22;20148;-83
2023/03/15 02:15:59;;;;;;;3.70;1.63;;;1.00;99.90;;;;;;6272482;22;20218;-83
2023/03/15 02:18:25;;;;;;;4.97;1.97;;;0.90;99.90;;;;;;6273299;22;20152;-82
2023/03/15 02:21:12;;;;;;;2.87;1.37;;;0.90;99.90;;;;;;6272742;22;20175;-82
2023/03/15 02:23:38;;;;;;;4.85;1.50;;;1.00;99.90;;;;;;6272723;22;20160;-83
2023/03/15 02:26:20;;;;;;;2.72;1.83;;;0.90;99.90;;;;;;6272742;22;20155;-82
2023/03/15 02:28:45;;;;;;;10.70;1.90;;;0.90;99.90;;;;;;6272576;22;20225;-83
2023/03/15 02:31:12;;;;;;;3.63;1.80;;;0.90;99.90;;;;;;6273003;22;20654;-84
2023/03/15 02:33:42;;;;;;;8.25;2.22;;;0.80;99.90;;;;;;6272196;22;20571;-83
2023/03/15 02:36:15;;;;;;;4.43;1.63;;;0.80;99.90;;;;;;6298648;22;20147;-82
2023/03/15 02:38:41;;;;;;;6.55;2.08;;;0.80;99.90;;;;;;6274816;22;20132;-85
2023/03/15 02:41:06;;;;;;;5.03;2.03;;;0.70;99.90;;;;;;6275111;22;20171;-86
2023/03/15 02:43:33;;;;;;;6.23;2.67;;;0.70;99.90;;;;;;6272671;22;20191;-82
2023/03/15 02:46:00;;;;;;;5.45;2.10;;;0.70;99.90;;;;;;6298521;22;20179;-83
2023/03/15 02:48:25;;;;;;;4.25;1.75;;;0.70;99.90;;;;;;6275959;22;20194;-84
2023/03/15 02:50:51;;;;;;;6.90;3.37;;;0.80;99.90;;;;;;6275110;22;20179;-83
2023/03/15 02:53:16;;;;;;;7.60;2.67;;;0.80;99.90;;;;;;6276244;22;20379;-86
2023/03/15 02:55:42;;;;;;;5.53;4.33;;;0.70;99.90;;;;;;6275434;22;20174;-87
2023/03/15 02:58:07;;;;;;;9.50;1.77;;;0.70;99.90;;;;;;6276197;22;20155;-81
2023/03/15 03:00:33;;;;;;;6.03;2.90;;;0.80;99.90;;;;;;6276713;22;20174;-84
2023/03/15 03:02:59;;;;;;;2.30;1.60;;;0.80;99.90;;;;;;6272497;22;20156;-83
2023/03/15 03:05:24;;;;;;;5.50;1.60;;;0.80;99.90;;;;;;6274187;22;20183;-82
2023/03/15 03:07:50;;;;;;;2.87;0.97;;;0.80;99.90;;;;;;6271377;22;20144;-82
2023/03/15 03:10:18;;;;;;;4.77;2.00;;;0.80;99.90;;;;;;6275347;22;20190;-84
2023/03/15 03:12:43;;;;;;;2.97;2.50;;;0.90;99.90;;;;;;6276599;22;20144;-83
2023/03/15 03:15:10;;;;;;;3.70;1.77;;;0.80;99.90;;;;;;6276718;22;20573;-84
2023/03/15 03:17:36;;;;;;;14.35;3.17;;;0.80;99.90;;;;;;6276475;22;20649;-83
2023/03/15 03:20:06;;;;;;;5.03;2.47;;;0.80;99.90;;;;;;6276470;22;20172;-82
2023/03/15 03:22:32;;;;;;;3.58;2.08;;;0.80;99.90;;;;;;6300149;22;20374;-86
2023/03/15 03:24:58;;;;;;;5.47;2.60;;;0.70;99.90;;;;;;6274250;22;20198;-85
2023/03/15 03:27:23;;;;;;;7.23;3.30;;;0.70;99.90;;;;;;6275606;22;20386;-83
2023/03/15 03:29:49;;;;;;;12.20;2.70;;;0.80;99.90;;;;;;6274717;22;20167;-83
2023/03/15 03:32:14;;;;;;;9.37;2.17;;;0.80;99.90;;;;;;6273939;22;20158;-82
2023/03/15 03:34:40;;;;;;;4.90;2.30;;;0.80;99.90;;;;;;6275556;22;20583;-84
2023/03/15 03:37:06;;;;;;;3.50;2.70;;;0.80;99.90;;;;;;6274656;22;20880;-83
2023/03/15 03:39:31;;;;;;;5.53;2.37;;;0.80;99.90;;;;;;6277924;22;20182;-84
2023/03/15 03:41:57;;;;;;;3.10;2.50;;;0.70;99.90;;;;;;6273666;22;20169;-84
2023/03/15 03:44:22;;;;;;;7.90;4.00;;;0.70;99.90;;;;;;6275807;22;20207;-85
2023/03/15 03:46:48;;;;;;;6.47;3.60;;;0.70;99.90;;;;;;6275739;22;20156;-86
2023/03/15 03:49:13;;;;;;;3.10;2.17;;;0.70;99.90;;;;;;6277469;22;20650;-83
2023/03/15 03:51:40;;;;;;;7.33;3.30;;;0.60;99.90;;;;;;6276337;22;20209;-83
2023/03/15 03:54:05;;;;;;;11.63;3.70;;;0.60;99.90;;;;;;6274560;22;20156;-87
2023/03/15 03:56:31;;;;;;;7.03;3.50;;;0.60;99.90;;;;;;6276002;22;20462;-84
2023/03/15 03:58:56;;;;;;;3.90;2.57;;;0.60;99.90;;;;;;6274216;22;20156;-84
2023/03/15 04:01:22;;;;;;;5.07;2.47;;;0.50;99.90;;;;;;6274113;22;20492;-82
2023/03/15 04:03:48;;;;;;;6.30;3.00;;;0.60;99.90;;;;;;6274718;22;20155;-84
2023/03/15 04:06:13;;;;;;;5.50;3.10;;;0.60;99.90;;;;;;6276819;22;20170;-84
2023/03/15 04:08:40;;;;;;;4.37;2.67;;;0.50;99.90;;;;;;6276850;22;20378;-83
2023/03/15 04:11:05;;;;;;;7.47;3.25;;;0.50;99.90;;;;;;6275190;22;20188;-82
2023/03/15 04:13:32;;;;;;;4.30;3.20;;;0.50;99.90;;;;;;6276204;22;20187;-84
2023/03/15 04:16:00;;;;;;;9.07;3.00;;;0.50;99.90;;;;;;6274409;22;20470;-83
2023/03/15 04:18:26;;;;;;;5.97;3.60;;;0.50;99.90;;;;;;6249416;22;20148;-84
2023/03/15 04:20:53;;;;;;;10.70;3.25;;;0.40;99.90;;;;;;6277618;22;20189;-82
2023/03/15 04:23:20;;;;;;;7.80;2.97;;;0.40;99.90;;;;;;6276125;22;20148;-85
2023/03/15 04:25:56;;;;;;;8.85;3.53;;;0.30;99.90;;;;;;6250387;22;20210;-84
2023/03/15 04:28:22;;;;;;;4.70;3.63;;;0.30;99.90;;;;;;6250102;22;20197;-83
2023/03/15 04:30:49;;;;;;;6.00;3.50;;;0.20;99.90;;;;;;6276941;22;20180;-83
2023/03/15 04:33:15;;;;;;;7.30;2.88;;;0.30;99.90;;;;;;6249384;22;20148;-83
2023/03/15 04:35:43;;;;;;;12.55;3.17;;;0.30;99.90;;;;;;6248197;22;20235;-85
2023/03/15 04:38:09;;;;;;;9.85;4.05;;;0.30;99.90;;;;;;6249171;22;20241;-84
2023/03/15 04:40:34;;;;;;;7.27;3.40;;;0.20;99.90;;;;;;6276093;22;20164;-84
2023/03/15 04:43:02;;;;;;;6.57;3.53;;;0.30;99.90;;;;;;6247674;22;20240;-84
2023/03/15 04:45:30;;;;;;;6.10;3.40;;;0.20;99.90;;;;;;6277227;22;20152;-84
2023/03/15 04:47:56;;;;;;;7.97;4.97;;;0.20;99.90;;;;;;6277928;22;20143;-84
2023/03/15 04:50:22;;;;;;;7.70;4.10;;;0.00;99.90;;;;;;6247801;22;20190;-84
2023/03/15 04:52:48;;;;;;;7.10;3.67;;;0.10;99.90;;;;;;6275486;22;20366;-82
2023/03/15 04:55:14;;;;;;;5.77;2.63;;;0.10;99.90;;;;;;6275152;22;20231;-85
2023/03/15 04:57:40;;;;;;;16.88;3.92;;;0.10;99.90;;;;;;6248366;22;20404;-84
2023/03/15 05:00:08;;;;;;;11.30;4.27;;;0.10;99.90;;;;;;6248777;22;20533;-85
2023/03/15 05:02:34;;;;;;;6.88;3.65;;;0.10;99.90;;;;;;6249613;22;20159;-85
2023/03/15 05:05:00;;;;;;;5.70;2.95;;;0.10;99.90;;;;;;6249833;22;20152;-84
2023/03/15 05:07:25;;;;;;;9.63;4.97;;;0.00;99.90;;;;;;6250094;22;20152;-85
2023/03/15 05:09:51;;;;;;;5.80;2.00;;;0.00;99.90;;;;;;6250253;22;20232;-84
2023/03/15 05:12:17;;;;;;;8.80;4.60;;;0.00;99.90;;;;;;6277104;22;20173;-84
2023/03/15 05:14:43;;;;;;;7.47;4.53;;;0.00;99.90;;;;;;6258700;22;21380;-83
2023/03/15 05:17:09;;;;;;;9.98;4.13;;;0.00;99.90;;;;;;6277023;22;20158;-85
2023/03/15 05:19:34;;;;;;;6.40;4.10;;;0.00;99.90;;;;;;6277798;22;20152;-85
2023/03/15 05:22:02;;;;;;;7.73;4.37;;;0.00;99.90;;;;;;6278928;22;20374;-84
2023/03/15 05:24:29;;;;;;;6.55;4.47;;;0.00;99.90;;;;;;6275804;22;20373;-84
2023/03/15 05:26:54;;;;;;;7.57;4.47;;;0.10;99.90;;;;;;6275937;22;20140;-83
2023/03/15 05:29:21;;;;;;;20.70;8.07;;;0.10;99.90;;;;;;6277682;22;20182;-84
2023/03/15 05:31:47;;;;;;;10.88;4.65;;;0.10;99.90;;;;;;6278079;22;20984;-86
2023/03/15 05:34:13;;;;;;;15.35;4.53;;;0.10;99.90;;;;;;6278338;22;20293;-84
2023/03/15 05:36:40;;;;;;;9.43;4.60;;;;;;;;;;6277125;22;20196;-84
2023/03/15 05:39:06;;;;;;;10.20;4.53;;;;;;;;;;6284635;22;20168;-85
2023/03/15 05:41:32;;;;;;;11.83;5.60;;;;;;;;;;6282066;22;20501;-85
2023/03/15 05:43:58;;;;;;;9.52;4.85;;;;;;;;;;6283682;22;20366;-85
2023/03/15 05:46:24;;;;;;;18.77;3.55;;;;;;;;;;6282422;22;20163;-85
2023/03/15 05:48:52;;;;;;;10.25;5.05;;;;;;;;;;6285043;22;20215;-83
2023/03/15 05:51:18;;;;;;;12.30;4.60;;;0.20;99.90;;;;;;6279815;22;20201;-83
2023/03/15 05:53:44;;;;;;;8.85;4.43;;;;;;;;;;6281380;22;20164;-83
2023/03/15 05:56:10;;;;;;;9.67;3.80;;;0.30;99.90;;;;;;6282926;22;20614;-83
2023/03/15 05:58:35;;;;;;;6.63;4.70;;;0.40;99.90;;;;;;6281346;22;20363;-83
2023/03/15 06:01:02;;;;;;;10.80;3.13;;;0.70;99.90;;;;;;6282306;22;20239;-82
2023/03/15 06:03:30;;;;;;;7.35;4.80;;;1.20;99.90;;;;;;6282042;22;20221;-82
2023/03/15 06:05:56;;;;;;;4.50;2.97;;;1.90;99.90;;;;;;6282403;22;20155;-83
2023/03/15 06:08:21;;;;;;;12.15;5.28;;;1.90;99.90;;;;;;6284085;22;20479;-83
2023/03/15 06:10:47;;;;;;;15.53;5.00;;;2.10;99.90;;;;;;6282901;22;20280;-82
2023/03/15 06:13:12;;;;;;;10.13;4.77;;;2.40;99.90;;;;;;6281413;22;20158;-84
2023/03/15 06:15:38;;;;;;;11.73;4.77;;;3.20;99.90;;;;;;6281211;22;20148;-84
2023/03/15 06:18:04;;;;;;;7.33;2.87;;;3.20;99.90;;;;;;6283646;22;20147;-81
2023/03/15 06:20:30;;;;;;;4.70;2.87;;;;;;;;;;6282047;22;20166;-84
2023/03/15 06:22:56;;;;;;;7.85;3.22;;;4.00;99.90;;;;;;6282733;22;20227;-84
2023/03/15 06:25:22;;;;;;;2.30;2.10;;;4.00;99.90;;;;;;6278999;22;20156;-83
2023/03/15 06:27:47;;;;;;;6.73;2.87;;;3.90;99.90;;;;;;6281774;22;20645;-84
2023/03/15 06:30:13;;;;;;;7.93;2.60;;;4.30;99.90;;;;;;6282956;22;20168;-84
2023/03/15 06:32:39;;;;;;;6.97;4.50;;;4.50;99.90;;;;;;6282056;22;20211;-83
2023/03/15 06:35:05;;;;;;;6.63;2.80;;;4.30;99.90;;;;;;6282482;22;20374;-84
2023/03/15 06:37:30;;;;;;;5.60;3.33;;;4.70;99.90;;;;;;6282882;22;20439;-84
2023/03/15 06:39:56;;;;;;;6.27;2.80;;;;;;;;;;6282939;22;20462;-82
2023/03/15 06:42:22;;;;;;;4.87;2.30;;;6.00;99.90;;;;;;6282908;22;20144;-82
2023/03/15 06:44:47;;;;;;;3.20;1.80;;;6.10;99.90;;;;;;6253789;22;20379;-83
2023/03/15 06:47:13;;;;;;;4.93;1.93;;;5.70;99.90;;;;;;6254966;22;20614;-83
2023/03/15 06:49:38;;;;;;;9.60;2.70;;;6.10;99.90;;;;;;6254751;22;20163;-82
2023/03/15 06:52:05;;;;;;;4.83;1.47;;;6.10;99.90;;;;;;6283218;22;20139;-82
2023/03/15 06:54:31;;;;;;;3.80;2.05;;;5.90;99.90;;;;;;6254819;22;20151;-82
2023/03/15 06:56:57;;;;;;;9.00;2.27;;;5.80;99.90;;;;;;6281076;22;20628;-83
2023/03/15 06:59:23;;;;;;;3.43;2.13;;;;;;;;;;6252871;22;20728;-82
2023/03/15 07:01:48;;;;;;;6.30;2.13;;;6.20;99.90;;;;;;6252903;22;20375;-82
2023/03/15 07:04:14;;;;;;;2.93;1.10;;;;;;;;;;6281601;22;20346;-83
2023/03/15 07:06:40;;;;;;;8.48;2.45;;;7.10;99.90;;;;;;6280996;22;20223;-82
2023/03/15 07:09:06;;;;;;;7.53;2.07;;;7.60;99.90;;;;;;6281927;22;20144;-82
2023/03/15 07:11:32;;;;;;;9.20;2.10;;;;;;;;;;6253528;22;20182;-82
2023/03/15 07:13:58;;;;;;;7.95;1.80;;;8.00;99.90;;;;;;6255175;22;20379;-83
2023/03/15 07:16:24;;;;;;;4.00;1.90;;;7.40;99.90;;;;;;6255159;22;20207;-83
2023/03/15 07:18:50;;;;;;;7.18;2.20;;;7.00;99.90;;;;;;6281395;22;20151;-82
2023/03/15 07:21:16;;;;;;;5.90;1.93;;;7.10;99.90;;;;;;6280688;22;20140;-82
2023/03/15 07:23:41;;;;;;;5.70;1.77;;;7.70;99.90;;;;;;6281406;22;20199;-82
2023/03/15 07:26:07;;;;;;;8.27;2.10;;;;;;;;;;6251700;22;20171;-82
2023/03/15 07:28:33;;;;;;;4.17;1.87;;;7.10;99.90;;;;;;6279016;22;20446;-82
2023/03/15 07:31:04;;;;;;;2.37;1.37;;;6.90;99.90;;;;;;6251274;22;20472;-83
2023/03/15 07:33:32;;;;;;;6.80;1.95;;;8.90;99.90;;;;;;6251780;22;20152;-83
2023/03/15 07:36:00;;;;;;;4.18;2.05;;;8.90;99.90;;;;;;6250216;22;20176;-83
2023/03/15 07:38:29;;;;;;;5.18;1.92;;;9.20;99.90;;;;;;6252474;22;20158;-83
2023/03/15 07:40:55;;;;;;;6.60;1.60;;;9.20;99.90;;;;;;6280288;22;20232;-83
2023/03/15 07:43:20;;;;;;;6.27;3.10;;;9.10;99.90;;;;;;6280173;22;20156;-82
2023/03/15 07:45:46;;;;;;;6.97;1.50;;;8.80;99.90;;;;;;6252465;22;20235;-82
2023/03/15 07:48:12;;;;;;;9.63;2.07;;;10.00;99.90;;;;;;6278670;22;20154;-83
2023/03/15 07:50:38;;;;;;;9.00;2.10;;;9.90;99.90;;;;;;6252327;22;20409;-82
2023/03/15 07:53:05;;;;;;;6.28;2.17;;;10.00;99.90;;;;;;6278394;22;20454;-82
2023/03/15 07:55:34;;;;;;;11.40;2.42;;;10.10;99.90;;;;;;6279170;22;20150;-83
2023/03/15 07:58:00;;;;;;;3.25;1.85;;;10.10;99.90;;;;;;6279926;22;20193;-82
2023/03/15 08:00:26;;;;;;;4.32;1.80;;;10.60;99.90;;;;;;6251903;22;20217;-83
2023/03/15 08:02:52;;;;;;;5.72;3.35;;;10.60;99.90;;;;;;6251673;22;20162;-82
2023/03/15 08:05:18;;;;;;;5.60;2.33;;;10.00;99.90;;;;;;6250977;22;20238;-83
2023/03/15 08:07:47;;;;;;;5.15;2.00;;;9.40;99.90;;;;;;6277394;22;20170;-82
2023/03/15 08:10:14;;;;;;;9.88;2.35;;;10.90;99.90;;;;;;6251288;22;20198;-82
2023/03/15 08:12:41;;;;;;;4.03;1.98;;;10.90;99.90;;;;;;6277724;22;20148;-82
2023/03/15 08:15:12;;;;;;;10.73;2.72;;;10.70;99.90;;;;;;6250668;22;20148;-82
2023/03/15 08:17:39;;;;;;;3.63;2.15;;;9.30;99.90;;;;;;6279220;22;20163;-82
2023/03/15 08:20:06;;;;;;;7.20;2.60;;;10.40;99.90;;;;;;6279884;22;20144;-83
2023/03/15 08:22:32;;;;;;;4.72;2.00;;;;;;;;;;6280175;22;20140;-82
2023/03/15 08:24:57;;;;;;;7.20;2.70;;;11.90;99.90;;;;;;6279141;22;20196;-83
2023/03/15 08:27:25;;;;;;;3.30;1.70;;;11.70;99.90;;;;;;6252650;22;20485;-84
2023/03/15 08:29:50;;;;;;;5.60;2.17;;;11.70;99.90;;;;;;6280401;22;20182;-82
2023/03/15 08:32:18;;;;;;;4.20;1.80;;;12.90;99.90;;;;;;6254391;22;20231;-83
2023/03/15 08:34:44;;;;;;;8.48;2.38;;;12.90;99.90;;;;;;6280520;22;20156;-84
2023/03/15 08:37:10;;;;;;;8.13;2.30;;;12.40;99.90;;;;;;6279823;22;20454;-82
2023/03/15 08:39:36;;;;;;;4.32;2.00;;;13.20;99.90;;;;;;6281029;22;20150;-82
2023/03/15 08:42:02;;;;;;;7.65;2.00;;;13.30;99.90;;;;;;6254071;22;20148;-82
2023/03/15 08:44:28;;;;;;;8.07;2.20;;;;;;;;;;6281069;22;20159;-82
2023/03/15 08:46:53;;;;;;;5.60;2.17;;;14.20;99.90;;;;;;6281437;22;20214;-82
2023/03/15 08:49:19;;;;;;;5.43;2.23;;;14.20;97.90;;;;;;6282861;22;20366;-82
2023/03/15 08:51:44;;;;;;;14.93;2.40;;;13.50;95.00;;;;;;6256723;22;20509;-82
2023/03/15 08:54:13;;;;;;;5.50;2.83;;;12.70;96.00;;;;;;6256419;22;20155;-84
2023/03/15 08:56:38;;;;;;;8.93;2.25;;;10.70;96.60;;;;;;6256937;22;20273;-84
2023/03/15 08:59:04;;;;;;;4.63;2.50;;;10.30;99.40;;;;;;6256429;22;20167;-83
2023/03/15 09:01:30;;;;;;;7.70;3.23;;;9.60;99.90;;;;;;6256153;22;20508;-82
2023/03/15 09:03:55;;;;;;;11.20;2.33;;;9.60;99.90;;;;;;6255303;22;20158;-82
2023/03/15 09:06:21;;;;;;;5.50;1.90;;;9.20;99.90;;;;;;6257431;22;20214;-81
2023/03/15 09:08:46;;;;;;;9.30;1.73;;;8.40;99.90;;;;;;6254982;22;20175;-83
2023/03/15 09:11:12;;;;;;;4.93;1.20;;;7.20;99.90;;;;;;6283631;22;20585;-83
2023/03/15 09:13:38;;;;;;;5.97;1.20;;;6.90;99.90;;;;;;6256543;22;20516;-82
2023/03/15 09:16:04;;;;;;;3.27;1.37;;;8.20;99.90;;;;;;6281043;22;20202;-82
2023/03/15 09:18:30;;;;;;;5.13;1.40;;;8.90;99.90;;;;;;6257343;22;20235;-83
2023/03/15 09:20:55;;;;;;;2.63;1.50;;;9.10;99.90;;;;;;6282140;22;20155;-83
2023/03/15 09:23:21;;;;;;;4.60;1.20;;;9.00;99.90;;;;;;6255415;22;20373;-82
2023/03/15 09:25:47;;;;;;;4.10;1.33;;;7.90;99.90;;;;;;6280900;22;20377;-83
2023/03/15 09:28:13;;;;;;;5.35;1.50;;;7.90;99.90;;;;;;6282480;22;20147;-83
2023/03/15 09:30:40;;;;;;;10.77;1.40;;;8.40;99.90;;;;;;6255251;22;20202;-83
2023/03/15 09:33:06;;;;;;;4.13;1.15;;;;;;;;;;6282678;22;20179;-83
2023/03/15 09:35:32;;;;;;;3.97;1.25;;;;;;;;;;6283463;22;20148;-83
2023/03/15 09:37:58;;;;;;;4.40;2.50;;;9.30;99.90;;;;;;6283451;22;20182;-83
2023/03/15 09:40:29;;;;;;;4.53;0.82;;;8.70;99.90;;;;;;6282335;22;20371;-83
2023/03/15 09:43:05;;;;;;;3.60;1.67;;;8.10;99.90;;;;;;6282690;22;20175;-82
2023/03/15 09:46:21;;;;;;;6.43;1.40;;;7.90;99.90;;;;;;6284411;22;20467;-83
2023/03/15 09:49:13;;;;;;;5.80;1.42;;;7.60;99.90;;;;;;6231071;22;20158;-83
2023/03/15 09:52:01;;;;;;;3.70;1.00;;;7.70;99.90;;;;;;6256948;22;20168;-83
2023/03/15 09:54:37;;;;;;;5.43;2.05;;;7.50;99.90;;;;;;6281856;22;20182;-82
2023/03/15 09:57:17;;;;;;;5.60;1.30;;;8.00;99.90;;;;;;6255673;22;20179;-82
2023/03/15 09:59:47;;;;;;;6.30;1.25;;;8.30;99.90;;;;;;6256011;22;20143;-83
2023/03/15 10:02:16;;;;;;;2.47;1.00;;;8.60;99.90;;;;;;6282224;22;20136;-83
2023/03/15 10:04:44;;;;;;;4.22;1.15;;;8.70;99.90;;;;;;6281538;22;20227;-83
2023/03/15 10:07:13;;;;;;;2.72;1.00;;;8.90;99.90;;;;;;6281755;22;20160;-83
2023/03/15 10:09:39;;;;;;;3.50;1.40;;;9.10;99.90;;;;;;6283789;22;20151;-84
2023/03/15 10:12:08;;;;;;;3.87;1.80;;;7.80;99.90;;;;;;6255688;22;20147;-83
2023/03/15 10:14:58;;;;;;;2.78;0.90;;;7.30;99.90;;;;;;6253945;22;20148;-83
2023/03/15 10:17:56;;;;;;;2.00;0.90;;;7.10;99.90;;;;;;6281996;22;20168;-83
2023/03/15 10:20:26;;;;;;;3.17;0.80;;;6.90;99.90;;;;;;6283744;22;20132;-82
2023/03/15 10:22:59;;;;;;;3.83;1.10;;;6.40;99.90;;;;;;6282886;22;20214;-84
2023/03/15 10:25:32;;;;;;;2.80;0.80;;;6.20;99.90;;;;;;6253725;22;20152;-83
2023/03/15 10:28:19;;;;;;;3.22;0.98;;;6.60;99.90;;;;;;6254212;22;20602;-82
2023/03/15 10:30:47;;;;;;;4.25;1.15;;;6.40;99.90;;;;;;6254705;22;20333;-83
2023/03/15 10:33:33;;;;;;;2.80;0.82;;;6.40;99.90;;;;;;6281223;22;20250;-82
2023/03/15 10:36:00;;;;;;;5.68;1.20;;;6.50;99.90;;;;;;6253183;22;20205;-83
2023/03/15 10:38:26;;;;;;;1.25;0.80;;;6.70;99.90;;;;;;6280894;22;20654;-82
2023/03/15 10:40:56;;;;;;;2.63;0.55;;;6.30;99.90;;;;;;6257165;22;20156;-85
2023/03/15 10:43:25;;;;;;;1.42;0.77;;;6.10;99.90;;;;;;6284631;22;20216;-85
2023/03/15 10:46:11;;;;;;;2.28;1.05;;;5.30;99.90;;;;;;6284156;22;20144;-83
2023/03/15 10:48:55;;;;;;;2.45;0.80;;;5.20;99.90;;;;;;6259271;22;20729;-83
2023/03/15 10:51:36;;;;;;;1.80;1.02;;;5.00;99.90;;;;;;6284030;22;20219;-82
2023/03/15 10:54:23;;;;;;;2.50;1.08;;;4.80;99.90;;;;;;6280805;22;20132;-82
2023/03/15 10:57:05;;;;;;;2.25;1.38;;;4.60;99.90;;;;;;6253563;22;20194;-82
2023/03/15 10:59:34;;;;;;;6.47;1.05;;;4.80;99.90;;;;;;6279942;22;20139;-83
2023/03/15 11:02:11;;;;;;;2.75;1.20;;;4.80;99.90;;;;;;6280215;22;20141;-83
2023/03/15 11:04:41;;;;;;;2.67;1.27;;;5.00;99.90;;;;;;6253783;22;20626;-82
2023/03/15 11:07:07;;;;;;;1.40;1.00;;;4.90;99.90;;;;;;6280761;22;20160;-82
2023/03/15 11:09:44;;;;;;;2.60;1.20;;;4.80;99.90;;;;;;6279328;22;20167;-82
2023/03/15 11:12:23;;;;;;;2.63;1.42;;;4.90;99.90;;;;;;6252408;22;20562;-82
2023/03/15 11:14:52;;;;;;;2.38;1.50;;;4.60;99.90;;;;;;6278786;22;20206;-82
2023/03/15 11:17:23;;;;;;;2.75;1.10;;;4.50;99.90;;;;;;6252614;22;20246;-82
2023/03/15 11:20:11;;;;;;;4.80;1.42;;;4.30;99.90;;;;;;6279380;22;20479;-82
2023/03/15 11:22:40;;;;;;;6.43;2.20;;;4.20;99.90;;;;;;6279857;22;20128;-82
2023/03/15 11:25:16;;;;;;;4.55;1.73;;;4.30;99.90;;;;;;6278050;22;20136;-82
2023/03/15 11:27:43;;;;;;;6.95;1.92;;;4.60;99.90;;;;;;6252553;22;20193;-83
2023/03/15 11:30:13;;;;;;;4.75;2.20;;;4.40;99.90;;;;;;6252985;22;20190;-81
2023/03/15 11:32:40;;;;;;;4.05;2.05;;;4.30;99.90;;;;;;6280531;22;20167;-82
2023/03/15 11:35:12;;;;;;;7.25;2.97;;;4.10;99.90;;;;;;6252597;22;20413;-82
2023/03/15 11:37:55;;;;;;;2.00;1.80;;;3.50;99.90;;;;;;6278494;22;20179;-83
2023/03/15 11:40:32;;;;;;;4.05;2.22;;;3.40;99.90;;;;;;6277513;22;20201;-83
2023/03/15 11:43:10;;;;;;;5.82;1.95;;;3.20;99.90;;;;;;6250582;22;20155;-83
2023/03/15 11:45:41;;;;;;;3.75;1.60;;;3.30;99.90;;;;;;6249928;22;20183;-83
2023/03/15 11:48:15;;;;;;;4.82;1.92;;;3.00;99.90;;;;;;6278351;22;20194;-83
2023/03/15 11:50:40;;;;;;;4.35;2.63;;;3.00;99.90;;;;;;6275625;22;20164;-83
2023/03/15 11:53:15;;;;;;;6.93;1.87;;;2.90;99.90;;;;;;6277639;22;20154;-82
2023/03/15 11:55:47;;;;;;;13.63;2.38;;;2.80;99.90;;;;;;6277998;22;20132;-82
2023/03/15 11:58:33;;;;;;;9.50;2.20;;;2.70;99.90;;;;;;6251508;22;20152;-85
2023/03/15 12:01:04;;;;;;;3.72;1.90;;;2.50;99.90;;;;;;6256119;22;20162;-83
2023/03/15 12:03:38;;;;;;;2.40;1.75;;;2.60;99.90;;;;;;6259373;22;20144;-83
2023/03/15 12:06:34;;;;;;;5.22;2.17;;;2.50;99.90;;;;;;6286676;22;20478;-83
2023/03/15 12:09:00;;;;;;;5.70;1.88;;;2.50;99.90;;;;;;6278363;22;20151;-83
2023/03/15 12:11:26;;;;;;;13.25;2.42;;;2.60;99.90;;;;;;6250213;22;20697;-83
2023/03/15 12:13:57;;;;;;;4.10;1.53;;;2.80;99.90;;;;;;6279241;22;20144;-84
2023/03/15 12:16:38;;;;;;;8.20;2.75;;;2.70;99.90;;;;;;6253960;22;20164;-83
2023/03/15 12:19:14;;;;;;;4.18;1.35;;;3.00;99.90;;;;;;6257570;22;20140;-83
2023/03/15 12:21:45;;;;;;;3.95;1.80;;;3.30;99.90;;;;;;6258277;22;20924;-83
2023/03/15 12:24:30;;;;;;;3.92;1.30;;;3.30;99.90;;;;;;6255698;22;20148;-83
2023/03/15 12:27:17;;;;;;;3.88;1.38;;;3.30;99.90;;;;;;6251237;22;20190;-83
2023/03/15 12:29:45;;;;;;;1.42;0.90;;;3.40;99.90;;;;;;6253483;22;20182;-83
2023/03/15 12:32:16;;;;;;;9.32;1.50;;;3.60;99.90;;;;;;6281990;22;20151;-84
2023/03/15 12:34:56;;;;;;;7.63;2.20;;;4.00;99.90;;;;;;6279984;22;20137;-83
2023/03/15 12:37:45;;;;;;;2.95;1.35;;;4.30;99.90;;;;;;6279110;22;20183;-83
2023/03/15 12:40:17;;;;;;;5.13;1.92;;;4.60;99.90;;;;;;6279747;22;20136;-83
2023/03/15 12:42:43;;;;;;;2.45;1.10;;;4.70;99.90;;;;;;6281029;22;20152;-83
2023/03/15 12:45:15;;;;;;;3.23;1.00;;;4.80;99.90;;;;;;6278215;22;20207;-83
2023/03/15 12:48:11;;;;;;;5.43;1.70;;;4.80;99.90;;;;;;6280222;22;20178;-83
2023/03/15 12:50:42;;;;;;;3.92;1.40;;;4.90;99.90;;;;;;6280810;22;20194;-83
2023/03/15 12:53:29;;;;;;;2.50;1.10;;;5.40;99.90;;;;;;6252346;22;20571;-83
2023/03/15 12:55:57;;;;;;;5.88;1.73;;;6.00;99.90;;;;;;6277237;22;20151;-83
2023/03/15 12:58:33;;;;;;;6.03;1.55;;;5.80;99.90;;;;;;6251370;22;20156;-83
2023/03/15 13:01:00;;;;;;;5.75;2.05;;;5.80;99.90;;;;;;6252169;22;20151;-83
2023/03/15 13:03:26;;;;;;;4.13;1.70;;;6.00;99.90;;;;;;6279193;22;20203;-83
2023/03/15 13:06:16;;;;;;;2.60;1.27;;;6.20;99.90;;;;;;6278050;22;20174;-83
2023/03/15 13:09:19;;;;;;;7.30;2.30;;;6.10;99.90;;;;;;6279218;22;20170;-83